Time;durP1;ratioP1;P1;durP2;ratioP2;P2;SDS_P1;SDS_P2;PMS_P1;PMS_P2;Temp;Humidity;BMP_temperature;BMP_pressure;BME280_temperature;BME280_humidity;BME280_pressure;Samples;Min_cycle;Max_cycle;Signal;HPM_P1;HPM_P2
2023/08/07 00:00:18;;;;;;;;;;;;;;;16.92;67.15;99500.00;5108513;27;4630;-75
2023/08/07 00:03:11;;;;;;;;;;;;;;;16.94;66.83;99500.50;5112462;27;5293;-72
2023/08/07 00:06:02;;;;;;;;;;;;;;;16.94;66.91;99490.44;5116973;27;5215;-75
2023/08/07 00:08:55;;;;;;;;;;;;;;;16.93;66.83;99496.16;5121846;27;4788;-74
2023/08/07 00:11:47;;;;;;;;;;;;;;;16.92;66.82;99481.75;5115662;27;4717;-74
2023/08/07 00:14:39;;;;;;;;;;;;;;;16.91;67.11;99482.03;5114373;27;4652;-75
2023/08/07 00:17:30;;;;;;;;;;;;;;;16.92;66.87;99475.50;5101266;27;5249;-74
2023/08/07 00:20:22;;;;;;;;;;;;;;;16.91;66.86;99466.56;5104920;27;4613;-73
2023/08/07 00:23:14;;;;;;;;;;;;;;;16.91;67.04;99466.56;5111862;27;5315;-73
2023/08/07 00:26:06;;;;;;;;;;;;;;;16.94;66.90;99451.53;5117349;27;4772;-73
2023/08/07 00:28:58;;;;;;;;;;;;;;;16.95;66.86;99447.75;5108591;27;4598;-75
2023/08/07 00:31:50;;;;;;;;;;;;;;;17.09;66.26;99437.78;5115822;27;4736;-73
2023/08/07 00:34:42;;;;;;;;;;;;;;;17.01;66.50;99433.00;5116768;27;4709;-76
2023/08/07 00:37:34;;;;;;;;;;;;;;;16.96;66.68;99433.84;5114310;27;4476;-75
2023/08/07 00:40:26;;;;;;;;;;;;;;;16.97;66.71;99429.22;5105722;27;4615;-74
2023/08/07 00:43:17;;;;;;;;;;;;;;;16.95;66.65;99415.91;5107564;27;5534;-74
2023/08/07 00:46:09;;;;;;;;;;;;;;;17.00;66.45;99399.53;5106111;27;4715;-75
2023/08/07 00:49:01;;;;;;;;;;;;;;;16.98;66.59;99387.34;5108469;27;4767;-74
2023/08/07 00:51:54;;;;;;;;;;;;;;;17.38;65.26;99382.47;5106550;27;5297;-73
2023/08/07 00:54:45;;;;;;;;;;;;;;;17.31;65.48;99362.97;5109778;27;4684;-74
2023/08/07 00:57:37;;;;;;;;;;;;;;;17.13;65.84;99354.50;5106075;27;4602;-74
2023/08/07 01:00:29;;;;;;;;;;;;;;;17.05;66.23;99340.72;5108794;27;4083;-74
2023/08/07 01:03:21;;;;;;;;;;;;;;;17.14;65.93;99334.34;5109263;27;4773;-76
2023/08/07 01:06:13;;;;;;;;;;;;;;;17.46;64.83;99330.09;5108322;27;4671;-74
2023/08/07 01:09:05;;;;;;;;;;;;;;;17.13;65.85;99318.34;5110052;27;4672;-75
2023/08/07 01:11:57;;;;;;;;;;;;;;;17.39;64.79;99321.50;5108236;27;5097;-76
2023/08/07 01:14:49;;;;;;;;;;;;;;;17.42;64.84;99335.31;5115702;27;4729;-73
2023/08/07 01:17:41;;;;;;;;;;;;;;;17.55;64.34;99338.41;5106309;27;4764;-75
2023/08/07 01:20:33;;;;;;;;;;;;;;;17.58;64.18;99338.63;5108277;27;4499;-73
2023/08/07 01:23:25;;;;;;;;;;;;;;;17.35;64.93;99344.94;5111031;27;4586;-75
2023/08/07 01:26:18;;;;;;;;;;;;;;;17.35;64.93;99334.06;5112245;27;4913;-73
2023/08/07 01:29:10;;;;;;;;;;;;;;;17.56;64.01;99329.13;5113412;27;4613;-72
2023/08/07 01:32:01;;;;;;;;;;;;;;;17.69;63.39;99325.66;5118730;27;4703;-74
2023/08/07 01:34:53;;;;;;;;;;;;;;;17.68;63.46;99318.63;5111996;27;5677;-75
2023/08/07 01:37:45;;;;;;;;;;;;;;;17.49;64.31;99305.81;5108516;27;4574;-74
2023/08/07 01:40:37;;;;;;;;;;;;;;;17.48;63.89;99284.34;5114356;27;4638;-74
2023/08/07 01:43:29;;;;;;;;;;;;;;;17.42;64.30;99259.13;5107913;27;4516;-73
2023/08/07 01:46:21;;;;;;;;;;;;;;;17.39;64.18;99243.38;5107743;27;4700;-73
2023/08/07 01:49:13;;;;;;;;;;;;;;;17.46;64.21;99260.13;5108493;27;4636;-73
2023/08/07 01:52:05;;;;;;;;;;;;;;;17.50;63.97;99249.50;5107314;27;4819;-73
2023/08/07 01:54:57;;;;;;;;;;;;;;;17.56;63.59;99234.69;5111199;27;4595;-73
2023/08/07 01:57:49;;;;;;;;;;;;;;;17.31;64.66;99225.00;5111131;27;5274;-73
2023/08/07 02:00:41;;;;;;;;;;;;;;;17.16;64.62;99209.72;5106965;27;4686;-73
2023/08/07 02:03:33;;;;;;;;;;;;;;;17.26;64.64;99214.19;5111193;27;5298;-74
2023/08/07 02:06:25;;;;;;;;;;;;;;;17.30;64.50;99209.00;5110994;27;5476;-75
2023/08/07 02:09:17;;;;;;;;;;;;;;;17.43;63.95;99195.41;5107908;27;4865;-74
2023/08/07 02:12:09;;;;;;;;;;;;;;;17.76;62.82;99180.97;5113405;28;5362;-74
2023/08/07 02:15:01;;;;;;;;;;;;;;;17.57;63.45;99184.56;5114412;27;5349;-74
2023/08/07 02:17:53;;;;;;;;;;;;;;;17.51;63.81;99171.34;5111249;27;5121;-73
2023/08/07 02:20:45;;;;;;;;;;;;;;;17.46;63.67;99153.19;5112763;27;4669;-75
2023/08/07 02:23:37;;;;;;;;;;;;;;;17.51;63.73;99146.88;5113108;27;4511;-76
2023/08/07 02:26:29;;;;;;;;;;;;;;;17.51;63.77;99135.97;5117650;27;5420;-72
2023/08/07 02:29:20;;;;;;;;;;;;;;;17.33;64.30;99140.38;5114822;27;4828;-73
2023/08/07 02:32:12;;;;;;;;;;;;;;;17.43;63.87;99124.66;5111525;27;4676;-73
2023/08/07 02:35:04;;;;;;;;;;;;;;;17.59;63.40;99117.03;5112871;27;4472;-74
2023/08/07 02:37:56;;;;;;;;;;;;;;;17.67;63.01;99118.25;5112525;27;5241;-73
2023/08/07 02:40:48;;;;;;;;;;;;;;;17.25;64.38;99096.41;5115725;27;4709;-76
2023/08/07 02:43:40;;;;;;;;;;;;;;;17.40;63.99;99103.50;5120484;27;3527;-74
2023/08/07 02:46:34;;;;;;;;;;;;;;;17.45;63.77;99100.69;5115792;27;4856;-76
2023/08/07 02:49:26;;;;;;;;;;;;;;;17.25;64.36;99092.88;5114521;27;4729;-74
2023/08/07 02:52:18;;;;;;;;;;;;;;;17.37;63.81;99086.97;5109371;27;4556;-74
2023/08/07 02:55:10;;;;;;;;;;;;;;;17.21;63.58;99037.47;5113448;27;4858;-74
2023/08/07 02:58:02;;;;;;;;;;;;;;;17.47;63.80;99070.44;5116155;27;4870;-73
2023/08/07 03:00:54;;;;;;;;;;;;;;;17.37;63.83;99059.75;5111808;27;4777;-76
2023/08/07 03:03:46;;;;;;;;;;;;;;;17.24;64.33;99051.28;5113920;27;5132;-75
2023/08/07 03:06:38;;;;;;;;;;;;;;;17.12;64.81;99050.94;5111614;27;4692;-75
2023/08/07 03:09:30;;;;;;;;;;;;;;;17.37;63.83;99046.94;5110774;27;4384;-74
2023/08/07 03:12:22;;;;;;;;;;;;;;;17.43;63.71;99032.13;5115969;27;5333;-73
2023/08/07 03:15:14;;;;;;;;;;;;;;;17.30;64.04;99037.59;5118218;27;5314;-74
2023/08/07 03:18:06;;;;;;;;;;;;;;;17.36;63.84;99039.09;5110360;27;4680;-73
2023/08/07 03:20:58;;;;;;;;;;;;;;;17.04;64.96;99019.00;5111342;27;5016;-75
2023/08/07 03:23:50;;;;;;;;;;;;;;;17.17;64.74;99012.75;5113993;27;4416;-73
2023/08/07 03:26:42;;;;;;;;;;;;;;;17.36;64.08;99012.69;5117036;27;4605;-73
2023/08/07 03:29:34;;;;;;;;;;;;;;;17.40;63.49;99012.88;5118150;27;4729;-74
2023/08/07 03:32:26;;;;;;;;;;;;;;;17.22;64.34;99009.16;5126296;27;4758;-76
2023/08/07 03:35:18;;;;;;;;;;;;;;;17.27;64.15;98997.38;5125935;27;4899;-74
2023/08/07 03:38:10;;;;;;;;;;;;;;;17.30;63.72;98999.50;5121654;27;4653;-75
2023/08/07 03:41:02;;;;;;;;;;;;;;;17.19;64.14;98988.00;5125739;27;4765;-74
2023/08/07 03:43:54;;;;;;;;;;;;;;;17.16;64.46;98983.16;5121975;27;5573;-74
2023/08/07 03:46:46;;;;;;;;;;;;;;;17.00;65.00;98978.00;5121604;27;5570;-75
2023/08/07 03:49:37;;;;;;;;;;;;;;;17.42;63.36;98965.22;5120041;27;4696;-75
2023/08/07 03:52:29;;;;;;;;;;;;;;;17.39;63.58;98956.84;5121495;27;5381;-75
2023/08/07 03:55:21;;;;;;;;;;;;;;;17.16;64.40;98951.31;5124307;27;4667;-74
2023/08/07 03:58:13;;;;;;;;;;;;;;;17.22;63.99;98947.38;5120821;27;4809;-75
2023/08/07 04:01:05;;;;;;;;;;;;;;;16.94;64.90;98937.59;5112381;27;5207;-73
2023/08/07 04:03:57;;;;;;;;;;;;;;;17.44;63.41;98927.63;5108640;27;4605;-73
2023/08/07 04:06:49;;;;;;;;;;;;;;;17.07;64.68;98914.25;5106679;27;5308;-73
2023/08/07 04:09:41;;;;;;;;;;;;;;;17.00;64.68;98903.75;5108560;27;4239;-73
2023/08/07 04:12:33;;;;;;;;;;;;;;;17.18;64.21;98904.78;5110750;27;4780;-75
2023/08/07 04:15:25;;;;;;;;;;;;;;;17.21;64.15;98894.09;5114872;27;4602;-74
2023/08/07 04:18:16;;;;;;;;;;;;;;;17.13;64.19;98883.91;5120389;27;5283;-74
2023/08/07 04:21:08;;;;;;;;;;;;;;;16.93;65.04;98885.13;5110863;27;4616;-74
2023/08/07 04:24:01;;;;;;;;;;;;;;;16.98;64.62;98878.78;5121089;27;4788;-74
2023/08/07 04:26:53;;;;;;;;;;;;;;;16.92;64.82;98880.00;5120476;27;5416;-77
2023/08/07 04:29:44;;;;;;;;;;;;;;;16.99;64.29;98870.31;5126765;27;5357;-75
2023/08/07 04:32:35;;;;;;;;;;;;;;;16.93;64.54;98865.28;5121977;27;5227;-73
2023/08/07 04:35:27;;;;;;;;;;;;;;;16.92;64.80;98867.19;5118930;27;5575;-74
2023/08/07 04:38:19;;;;;;;;;;;;;;;17.18;63.81;98867.50;5121027;27;4728;-75
2023/08/07 04:41:11;;;;;;;;;;;;;;;16.95;64.64;98877.47;5121940;27;4852;-74
2023/08/07 04:44:03;;;;;;;;;;;;;;;16.89;64.91;98875.16;5118776;27;5309;-75
2023/08/07 04:46:54;;;;;;;;;;;;;;;16.90;64.66;98880.28;5120198;27;5189;-75
2023/08/07 04:49:46;;;;;;;;;;;;;;;16.86;64.94;98867.63;5114903;27;4640;-75
2023/08/07 04:52:38;;;;;;;;;;;;;;;16.88;64.93;98862.66;5120829;27;4848;-75
2023/08/07 04:55:29;;;;;;;;;;;;;;;16.82;65.04;98861.16;5118233;27;5479;-73
2023/08/07 04:58:21;;;;;;;;;;;;;;;17.00;64.36;98871.94;5111660;27;4532;-74
2023/08/07 05:01:13;;;;;;;;;;;;;;;16.70;65.35;98861.63;5104933;27;4645;-75
2023/08/07 05:04:05;;;;;;;;;;;;;;;16.91;64.82;98868.31;5117054;27;5435;-74
2023/08/07 05:06:57;;;;;;;;;;;;;;;16.95;64.44;98863.88;5117186;27;4784;-73
2023/08/07 05:09:50;;;;;;;;;;;;;;;16.99;64.27;98856.72;5119120;27;5325;-74
2023/08/07 05:12:42;;;;;;;;;;;;;;;16.76;65.01;98846.84;5117416;27;5014;-74
2023/08/07 05:15:34;;;;;;;;;;;;;;;16.83;64.99;98854.63;5119039;27;5377;-76
2023/08/07 05:18:26;;;;;;;;;;;;;;;16.91;64.49;98853.91;5120716;27;4653;-75
2023/08/07 05:21:18;;;;;;;;;;;;;;;16.82;64.60;98840.19;5117710;27;5093;-74
2023/08/07 05:24:10;;;;;;;;;;;;;;;16.77;64.78;98840.31;5117672;27;5427;-74
2023/08/07 05:27:02;;;;;;;;;;;;;;;16.85;64.63;98834.16;5119743;27;5380;-74
2023/08/07 05:29:54;;;;;;;;;;;;;;;16.64;65.29;98833.72;5119951;27;4657;-73
2023/08/07 05:32:46;;;;;;;;;;;;;;;16.66;65.19;98833.44;5116247;27;4897;-73
2023/08/07 05:35:38;;;;;;;;;;;;;;;16.75;64.94;98821.56;5118077;27;5671;-74
2023/08/07 05:38:30;;;;;;;;;;;;;;;16.72;65.10;98824.88;5117060;27;4725;-74
2023/08/07 05:41:22;;;;;;;;;;;;;;;16.76;64.94;98823.19;5113905;27;4846;-73
2023/08/07 05:44:14;;;;;;;;;;;;;;;16.73;64.92;98809.38;5117939;27;5405;-74
2023/08/07 05:47:06;;;;;;;;;;;;;;;16.62;65.33;98808.78;5117459;27;4780;-73
2023/08/07 05:49:58;;;;;;;;;;;;;;;16.72;64.83;98808.56;5117398;27;5175;-75
2023/08/07 05:52:50;;;;;;;;;;;;;;;16.98;64.28;98802.66;5117634;27;5431;-76
2023/08/07 05:55:42;;;;;;;;;;;;;;;17.13;63.48;98796.88;5120048;27;4815;-74
2023/08/07 05:58:34;;;;;;;;;;;;;;;16.75;64.71;98783.50;5113046;27;4831;-76
2023/08/07 06:01:30;;;;;;;;;;;;;;;16.90;64.33;98790.56;5116364;27;5380;-73
2023/08/07 06:04:21;;;;;;;;;;;;;;;16.66;64.89;98779.88;5121527;27;5200;-76
2023/08/07 06:07:13;;;;;;;;;;;;;;;16.69;64.85;98783.91;5116225;27;5568;-74
2023/08/07 06:10:05;;;;;;;;;;;;;;;16.71;64.75;98774.34;5118799;27;5213;-75
2023/08/07 06:12:57;;;;;;;;;;;;;;;16.64;65.12;98773.94;5118305;28;4603;-73
2023/08/07 06:15:49;;;;;;;;;;;;;;;16.84;64.30;98770.03;5118514;27;5314;-74
2023/08/07 06:18:41;;;;;;;;;;;;;;;16.71;64.81;98763.47;5118348;27;4763;-75
2023/08/07 06:21:33;;;;;;;;;;;;;;;16.91;64.17;98765.00;5116729;27;4601;-75
2023/08/07 06:24:26;;;;;;;;;;;;;;;16.54;65.22;98757.84;5109807;27;5204;-75
2023/08/07 06:27:17;;;;;;;;;;;;;;;16.61;65.11;98754.72;5110343;27;5030;-75
2023/08/07 06:30:09;;;;;;;;;;;;;;;16.67;64.98;98762.44;5109420;27;4365;-73
2023/08/07 06:33:01;;;;;;;;;;;;;;;16.82;64.40;98761.34;5107748;28;4655;-73
2023/08/07 06:35:53;;;;;;;;;;;;;;;16.68;64.60;98753.22;5107705;27;4660;-73
2023/08/07 06:38:45;;;;;;;;;;;;;;;16.69;64.60;98743.94;5112620;27;4857;-74
2023/08/07 06:41:37;;;;;;;;;;;;;;;16.92;63.96;98738.59;5116823;27;4854;-76
2023/08/07 06:44:29;;;;;;;;;;;;;;;16.83;64.26;98738.53;5128977;27;4264;-74
2023/08/07 06:47:21;;;;;;;;;;;;;;;16.79;64.31;98732.91;5126935;27;3449;-75
2023/08/07 06:50:13;;;;;;;;;;;;;;;16.72;64.60;98727.03;5118517;27;2432;-74
2023/08/07 06:53:05;;;;;;;;;;;;;;;16.65;64.75;98723.09;5109022;27;2407;-74
2023/08/07 06:55:57;;;;;;;;;;;;;;;16.67;64.81;98716.25;5112294;28;2333;-75
2023/08/07 06:58:49;;;;;;;;;;;;;;;16.76;64.46;98710.94;5109301;28;3375;-73
2023/08/07 07:01:41;;;;;;;;;;;;;;;16.72;64.37;98702.56;5112031;28;4638;-74
2023/08/07 07:04:34;;;;;;;;;;;;;;;16.68;64.50;98701.56;5124724;27;4871;-76
2023/08/07 07:07:25;;;;;;;;;;;;;;;16.57;64.87;98698.25;5118866;27;4769;-76
2023/08/07 07:10:16;;;;;;;;;;;;;;;16.57;64.80;98697.44;5122249;27;4265;-73
2023/08/07 07:13:09;;;;;;;;;;;;;;;16.71;64.49;98681.94;5124082;27;1606;-73
2023/08/07 07:16:01;;;;;;;;;;;;;;;16.73;64.33;98685.13;5120939;27;1906;-75
2023/08/07 07:18:55;;;;;;;;;;;;;;;16.58;64.93;98682.75;5125017;27;4931;-73
2023/08/07 07:21:47;;;;;;;;;;;;;;;16.67;64.51;98672.75;5120801;27;1936;-75
2023/08/07 07:24:38;;;;;;;;;;;;;;;16.81;64.11;98667.34;5123769;27;4828;-74
2023/08/07 07:27:30;;;;;;;;;;;;;;;16.64;64.70;98673.38;5118287;27;4914;-74
2023/08/07 07:30:22;;;;;;;;;;;;;;;16.61;64.65;98662.31;5121338;27;4698;-76
2023/08/07 07:33:14;;;;;;;;;;;;;;;16.69;64.44;98659.69;5123066;27;4799;-75
2023/08/07 07:36:06;;;;;;;;;;;;;;;16.59;64.63;98651.78;5123146;27;4899;-75
2023/08/07 07:38:58;;;;;;;;;;;;;;;16.52;65.04;98649.44;5125364;27;5152;-76
2023/08/07 07:41:50;;;;;;;;;;;;;;;16.73;64.29;98657.16;5113057;27;5012;-75
2023/08/07 07:44:42;;;;;;;;;;;;;;;16.64;64.47;98645.41;5115296;27;5372;-75
2023/08/07 07:47:34;;;;;;;;;;;;;;;16.72;64.20;98650.13;5122588;27;4671;-73
2023/08/07 07:50:26;;;;;;;;;;;;;;;16.62;64.52;98640.28;5122005;27;4737;-76
2023/08/07 07:53:18;;;;;;;;;;;;;;;16.55;64.62;98635.25;5122444;27;4731;-73
2023/08/07 07:56:11;;;;;;;;;;;;;;;16.70;64.15;98627.88;5126039;27;4862;-75
2023/08/07 07:59:02;;;;;;;;;;;;;;;16.64;64.42;98615.50;5124929;27;4949;-74
2023/08/07 08:01:54;;;;;;;;;;;;;;;16.87;63.66;98616.38;5127262;27;4702;-73
2023/08/07 08:04:47;;;;;;;;;;;;;;;16.69;64.16;98620.84;5120588;27;4861;-74
2023/08/07 08:07:40;;;;;;;;;;;;;;;16.46;65.04;98615.34;5124708;27;4783;-74
2023/08/07 08:10:31;;;;;;;;;;;;;;;16.49;65.00;98619.38;5111916;27;4509;-73
2023/08/07 08:13:23;;;;;;;;;;;;;;;16.61;64.45;98614.19;5109532;27;4517;-74
2023/08/07 08:16:15;;;;;;;;;;;;;;;16.55;64.46;98610.78;5114542;27;4714;-75
2023/08/07 08:19:08;;;;;;;;;;;;;;;16.61;64.50;98614.19;5109580;27;4384;-73
2023/08/07 08:21:59;;;;;;;;;;;;;;;16.70;64.23;98612.34;5113628;27;4653;-75
2023/08/07 08:24:50;;;;;;;;;;;;;;;16.80;63.91;98612.16;5111684;27;4809;-73
2023/08/07 08:27:42;;;;;;;;;;;;;;;16.59;64.35;98605.56;5113696;27;4331;-74
2023/08/07 08:30:34;;;;;;;;;;;;;;;16.76;63.67;98605.72;5111621;27;4453;-73
2023/08/07 08:33:26;;;;;;;;;;;;;;;16.58;64.51;98606.66;5112691;27;4708;-73
2023/08/07 08:36:17;;;;;;;;;;;;;;;16.60;64.33;98600.94;5110125;27;4424;-74
2023/08/07 08:39:09;;;;;;;;;;;;;;;16.72;64.00;98582.16;5107528;27;4689;-73
2023/08/07 08:42:01;;;;;;;;;;;;;;;16.48;64.69;98583.25;5109744;27;4967;-75
2023/08/07 08:44:53;;;;;;;;;;;;;;;16.63;64.33;98581.28;5109346;27;4813;-73
2023/08/07 08:47:46;;;;;;;;;;;;;;;16.78;63.54;98583.69;5110014;27;4600;-75
2023/08/07 08:50:38;;;;;;;;;;;;;;;16.79;63.77;98586.09;5109905;27;4560;-74
2023/08/07 08:53:29;;;;;;;;;;;;;;;16.69;63.86;98594.44;5108842;27;4711;-74
2023/08/07 08:56:22;;;;;;;;;;;;;;;16.72;63.70;98582.97;5109699;27;4328;-74
2023/08/07 08:59:13;;;;;;;;;;;;;;;16.72;63.90;98601.19;5117643;27;4737;-75
2023/08/07 09:02:05;;;;;;;;;;;;;;;16.18;63.94;98533.13;5115940;27;4701;-74
2023/08/07 09:04:57;;;;;;;;;;;;;;;16.60;64.22;98592.78;5121281;27;4540;-75
2023/08/07 09:07:52;;;;;;;;;;;;;;;16.57;64.13;98583.31;5113689;27;4795;-75
2023/08/07 09:10:44;;;;;;;;;;;;;;;16.66;63.99;98584.19;5105153;27;3518;-73
2023/08/07 09:13:35;;;;;;;;;;;;;;;16.52;64.42;98594.31;5121035;27;4342;-74
2023/08/07 09:16:27;;;;;;;;;;;;;;;16.56;64.23;98604.25;5118896;27;4792;-76
2023/08/07 09:19:19;;;;;;;;;;;;;;;16.55;64.19;98613.50;5121416;27;5535;-72
2023/08/07 09:22:11;;;;;;;;;;;;;;;16.58;64.11;98601.22;5109178;27;4527;-74
2023/08/07 09:25:04;;;;;;;;;;;;;;;16.61;64.17;98588.94;5109341;27;4393;-77
2023/08/07 09:27:55;;;;;;;;;;;;;;;16.66;63.89;98589.63;5106557;27;4789;-75
2023/08/07 09:30:48;;;;;;;;;;;;;;;16.67;63.70;98593.16;5108060;27;4446;-76
2023/08/07 09:33:39;;;;;;;;;;;;;;;16.47;64.50;98594.41;5110067;27;6259;-74
2023/08/07 09:36:32;;;;;;;;;;;;;;;16.65;63.89;98593.47;5107994;27;4678;-77
2023/08/07 09:39:23;;;;;;;;;;;;;;;16.63;63.80;98590.25;5110287;27;4763;-73
2023/08/07 09:42:16;;;;;;;;;;;;;;;16.52;64.32;98581.50;5106946;27;4395;-74
2023/08/07 09:45:07;;;;;;;;;;;;;;;16.53;64.17;98575.00;5117916;27;4846;-75
2023/08/07 09:47:59;;;;;;;;;;;;;;;16.54;64.18;98578.50;5116326;27;4650;-73
2023/08/07 09:50:51;;;;;;;;;;;;;;;16.69;63.57;98582.78;5125151;27;4901;-73
2023/08/07 09:53:43;;;;;;;;;;;;;;;16.72;63.39;98572.09;5118742;27;4875;-77
2023/08/07 09:56:35;;;;;;;;;;;;;;;16.59;63.99;98567.53;5117367;27;4730;-75
2023/08/07 09:59:27;;;;;;;;;;;;;;;16.73;63.29;98562.00;5116563;27;4836;-75
2023/08/07 10:02:20;;;;;;;;;;;;;;;16.79;63.23;98549.94;5124196;27;4785;-73
2023/08/07 10:05:11;;;;;;;;;;;;;;;16.62;63.77;98536.19;5125252;27;4265;-74
2023/08/07 10:08:02;;;;;;;;;;;;;;;16.65;63.64;98533.69;5124759;27;4298;-73
2023/08/07 10:10:54;;;;;;;;;;;;;;;16.52;64.13;98524.44;5124015;28;1352;-75
2023/08/07 10:13:47;;;;;;;;;;;;;;;16.57;63.92;98518.91;5122575;27;1407;-72
2023/08/07 10:16:40;;;;;;;;;;;;;;;16.46;64.11;98511.31;5129785;28;4458;-73
2023/08/07 10:19:31;;;;;;;;;;;;;;;16.54;64.24;98508.66;5121536;27;2293;-74
2023/08/07 10:22:24;;;;;;;;;;;;;;;16.49;64.26;98514.19;5110488;27;2606;-76
2023/08/07 10:25:15;;;;;;;;;;;;;;;16.45;64.41;98501.56;5109372;27;2689;-76
2023/08/07 10:28:07;;;;;;;;;;;;;;;16.42;64.53;98492.09;5112009;27;2259;-75
2023/08/07 10:30:59;;;;;;;;;;;;;;;16.55;64.12;98485.00;5124906;27;2312;-75
2023/08/07 10:33:51;;;;;;;;;;;;;;;16.64;63.49;98483.13;5122537;27;2632;-76
2023/08/07 10:36:43;;;;;;;;;;;;;;;16.62;63.69;98469.06;5127912;28;2492;-76
2023/08/07 10:39:35;;;;;;;;;;;;;;;16.57;63.87;98458.31;5121438;27;4763;-76
2023/08/07 10:42:27;;;;;;;;;;;;;;;16.48;64.11;98465.63;5127090;27;4815;-77
2023/08/07 10:45:22;;;;;;;;;;;;;;;16.31;64.64;98467.09;5130916;27;2443;-75
2023/08/07 10:48:13;;;;;;;;;;;;;;;16.46;64.45;98462.41;5129444;27;2205;-76
2023/08/07 10:51:05;;;;;;;;;;;;;;;16.50;64.06;98456.06;5123840;27;4888;-75
2023/08/07 10:53:57;;;;;;;;;;;;;;;16.58;63.66;98459.91;5126973;27;5007;-76
2023/08/07 10:56:49;;;;;;;;;;;;;;;16.62;63.54;98452.78;5132948;27;5174;-75
2023/08/07 10:59:41;;;;;;;;;;;;;;;16.55;63.69;98447.75;5124071;27;4904;-76
2023/08/07 11:02:34;;;;;;;;;;;;;;;16.40;64.40;98452.78;5111783;27;5073;-76
2023/08/07 11:05:27;;;;;;;;;;;;;;;16.43;64.39;98465.72;5112910;27;5547;-78
2023/08/07 11:08:18;;;;;;;;;;;;;;;16.49;64.13;98464.50;5121021;27;4760;-76
2023/08/07 11:11:10;;;;;;;;;;;;;;;16.65;63.63;98464.91;5116042;27;4216;-77
2023/08/07 11:14:02;;;;;;;;;;;;;;;16.59;63.54;98456.09;5112980;27;4531;-77
2023/08/07 11:16:54;;;;;;;;;;;;;;;16.72;63.49;98446.25;5112552;27;4616;-74
2023/08/07 11:19:46;;;;;;;;;;;;;;;16.48;63.98;98441.97;5114269;27;4480;-74
2023/08/07 11:22:38;;;;;;;;;;;;;;;16.56;63.74;98427.63;5114589;27;4508;-74
2023/08/07 11:25:30;;;;;;;;;;;;;;;16.61;63.71;98434.03;5112598;27;3960;-75
2023/08/07 11:28:22;;;;;;;;;;;;;;;16.54;63.88;98438.00;5113807;27;4714;-76
2023/08/07 11:31:14;;;;;;;;;;;;;;;16.56;63.64;98430.34;5115187;27;5349;-75
2023/08/07 11:34:07;;;;;;;;;;;;;;;16.53;64.01;98430.97;5113858;27;4501;-77
2023/08/07 11:36:59;;;;;;;;;;;;;;;16.52;64.01;98426.63;5113445;27;4826;-74
2023/08/07 11:39:51;;;;;;;;;;;;;;;16.62;63.88;98422.06;5111877;27;4977;-74
2023/08/07 11:42:43;;;;;;;;;;;;;;;16.62;63.65;98425.59;5113709;27;4441;-74
2023/08/07 11:45:35;;;;;;;;;;;;;;;16.66;63.54;98414.91;5114237;27;4740;-74
2023/08/07 11:48:27;;;;;;;;;;;;;;;16.58;63.56;98416.44;5114241;27;5195;-75
2023/08/07 11:51:19;;;;;;;;;;;;;;;16.68;63.52;98416.19;5121157;27;4757;-75
2023/08/07 11:54:11;;;;;;;;;;;;;;;16.52;63.86;98417.69;5124455;27;4724;-75
2023/08/07 11:57:03;;;;;;;;;;;;;;;16.48;64.08;98417.50;5121738;27;4410;-76
2023/08/07 11:59:55;;;;;;;;;;;;;;;16.60;63.85;98416.16;5116682;27;4846;-77
2023/08/07 12:02:46;;;;;;;;;;;;;;;16.72;63.22;98411.72;5113491;27;4772;-79
2023/08/07 12:05:38;;;;;;;;;;;;;;;16.58;63.56;98413.72;5116669;27;4600;-77
2023/08/07 12:08:30;;;;;;;;;;;;;;;16.72;63.23;98392.72;5110878;27;4657;-77
2023/08/07 12:11:22;;;;;;;;;;;;;;;16.69;63.27;98404.19;5120646;27;5459;-76
2023/08/07 12:14:15;;;;;;;;;;;;;;;16.64;63.79;98398.09;5122176;27;5664;-75
2023/08/07 12:17:06;;;;;;;;;;;;;;;16.45;63.92;98395.59;5121544;27;5052;-78
2023/08/07 12:19:58;;;;;;;;;;;;;;;16.56;63.85;98397.75;5122014;27;4850;-76
2023/08/07 12:22:50;;;;;;;;;;;;;;;16.38;64.13;98403.38;5121405;27;4790;-77
2023/08/07 12:25:42;;;;;;;;;;;;;;;16.70;63.27;98396.84;5119912;27;4875;-75
2023/08/07 12:28:34;;;;;;;;;;;;;;;16.43;64.03;98390.47;5123032;27;5003;-74
2023/08/07 12:31:26;;;;;;;;;;;;;;;16.65;63.46;98392.38;5123115;27;4894;-75
2023/08/07 12:34:18;;;;;;;;;;;;;;;16.61;63.36;98396.00;5122807;27;4682;-74
2023/08/07 12:37:10;;;;;;;;;;;;;;;16.65;63.58;98391.53;5116980;27;4984;-78
2023/08/07 12:40:05;;;;;;;;;;;;;;;16.67;63.08;98390.13;5119427;27;4595;-77
2023/08/07 12:42:57;;;;;;;;;;;;;;;16.36;64.15;98392.84;5113949;27;4799;-76
2023/08/07 12:45:49;;;;;;;;;;;;;;;16.47;63.81;98399.63;5114176;27;3746;-77
2023/08/07 12:48:41;;;;;;;;;;;;;;;16.46;63.99;98383.63;5110604;27;4485;-78
2023/08/07 12:51:34;;;;;;;;;;;;;;;16.69;63.33;98381.66;5108600;27;4489;-76
2023/08/07 12:54:25;;;;;;;;;;;;;;;16.75;63.07;98381.22;5108146;27;5311;-77
2023/08/07 12:57:17;;;;;;;;;;;;;;;16.84;62.49;98385.91;5110525;27;4813;-76
2023/08/07 13:00:12;;;;;;;;;;;;;;;16.63;63.45;98366.59;5109504;27;4720;-75
2023/08/07 13:03:04;;;;;;;;;;;;;;;16.74;63.27;98367.94;5111305;27;4526;-75
2023/08/07 13:05:56;;;;;;;;;;;;;;;16.87;62.82;98375.22;5118929;27;4744;-75
2023/08/07 13:08:47;;;;;;;;;;;;;;;16.58;63.64;98375.69;5112409;27;4768;-74
2023/08/07 13:11:39;;;;;;;;;;;;;;;16.66;63.44;98371.41;5120411;27;4947;-76
2023/08/07 13:14:31;;;;;;;;;;;;;;;16.64;63.54;98366.28;5109415;27;4240;-76
2023/08/07 13:17:23;;;;;;;;;;;;;;;16.67;63.26;98373.00;5110741;27;4417;-75
2023/08/07 13:20:16;;;;;;;;;;;;;;;16.71;63.17;98366.66;5122666;27;5293;-76
2023/08/07 13:23:07;;;;;;;;;;;;;;;16.61;63.43;98364.19;5119301;27;5404;-77
2023/08/07 13:25:59;;;;;;;;;;;;;;;16.71;63.17;98358.50;5121162;27;4877;-75
2023/08/07 13:28:51;;;;;;;;;;;;;;;16.83;62.89;98343.53;5119386;27;5569;-75
2023/08/07 13:31:46;;;;;;;;;;;;;;;16.51;63.50;98353.59;5117569;27;5698;-77
2023/08/07 13:34:37;;;;;;;;;;;;;;;16.62;63.33;98348.69;5118826;27;5393;-78
2023/08/07 13:37:30;;;;;;;;;;;;;;;16.62;63.38;98349.50;5112240;27;4346;-78
2023/08/07 13:40:23;;;;;;;;;;;;;;;16.78;62.82;98358.88;5106998;27;4717;-75
2023/08/07 13:43:15;;;;;;;;;;;;;;;16.86;62.72;98351.06;5110178;27;4802;-76
2023/08/07 13:46:07;;;;;;;;;;;;;;;16.92;62.41;98342.47;5114270;27;4589;-75
2023/08/07 13:48:59;;;;;;;;;;;;;;;16.93;62.06;98313.34;5107312;27;4460;-75
2023/08/07 13:51:51;;;;;;;;;;;;;;;16.95;62.27;98302.97;5109966;27;4626;-77
2023/08/07 13:54:42;;;;;;;;;;;;;;;16.81;62.97;98308.50;5107505;27;4762;-78
2023/08/07 13:57:35;;;;;;;;;;;;;;;16.41;64.08;98319.34;5121192;27;4657;-75
2023/08/07 14:00:26;;;;;;;;;;;;;;;16.85;62.93;98312.19;5117323;27;4729;-77
2023/08/07 14:03:19;;;;;;;;;;;;;;;16.97;62.21;98304.25;5107061;27;4221;-77
2023/08/07 14:06:10;;;;;;;;;;;;;;;16.63;63.35;98307.63;5114186;27;5320;-76
2023/08/07 14:09:03;;;;;;;;;;;;;;;16.43;63.75;98311.69;5105553;27;4502;-76
2023/08/07 14:11:56;;;;;;;;;;;;;;;16.29;64.51;98308.25;5106532;27;4849;-77
2023/08/07 14:14:48;;;;;;;;;;;;;;;16.26;64.54;98312.38;5107517;27;4826;-75
2023/08/07 14:17:39;;;;;;;;;;;;;;;16.89;62.55;98307.75;5110273;27;4618;-75
2023/08/07 14:20:31;;;;;;;;;;;;;;;16.51;63.85;98319.06;5120592;27;5090;-75
2023/08/07 14:23:23;;;;;;;;;;;;;;;16.46;63.81;98308.34;5116110;27;4896;-77
2023/08/07 14:26:15;;;;;;;;;;;;;;;16.68;63.28;98306.69;5119855;27;4657;-76
2023/08/07 14:29:08;;;;;;;;;;;;;;;16.60;63.48;98302.81;5121518;27;4875;-75
2023/08/07 14:31:59;;;;;;;;;;;;;;;16.65;63.33;98305.41;5119166;27;4956;-75
2023/08/07 14:34:51;;;;;;;;;;;;;;;16.38;64.00;98300.94;5121320;28;4722;-77
2023/08/07 14:37:43;;;;;;;;;;;;;;;16.27;64.75;98291.50;5118577;28;4796;-75
2023/08/07 14:40:39;;;;;;;;;;;;;;;16.76;63.00;98297.78;5119314;28;5313;-75
2023/08/07 14:43:30;;;;;;;;;;;;;;;16.52;63.77;98298.13;5116319;28;4261;-74
2023/08/07 14:46:23;;;;;;;;;;;;;;;16.54;64.00;98277.69;5117781;28;4923;-77
2023/08/07 14:49:14;;;;;;;;;;;;;;;16.73;63.18;98257.59;5119281;28;5589;-75
2023/08/07 14:52:05;;;;;;;;;;;;;;;16.50;63.97;98259.59;5118504;28;5316;-76
2023/08/07 14:54:58;;;;;;;;;;;;;;;16.91;62.58;98261.19;5114029;28;5137;-77
2023/08/07 14:57:49;;;;;;;;;;;;;;;16.82;62.89;98261.19;5115737;28;5023;-75
2023/08/07 15:00:40;;;;;;;;;;;;;;;16.67;63.03;98273.25;5114865;28;5095;-77
2023/08/07 15:03:32;;;;;;;;;;;;;;;16.69;62.87;98270.25;5118032;28;5148;-75
2023/08/07 15:06:24;;;;;;;;;;;;;;;16.98;62.04;98256.91;5122078;27;4638;-75